sensor_id;sensor_type;location;lat;lon;timestamp;P1;durP1;ratioP1;P2;durP2;ratioP2
37647;SDS011;23490;53.656;10.076;2023-04-06T00:00:11;9.70;;;4.22;;
37647;SDS011;23490;53.656;10.076;2023-04-06T00:02:37;10.32;;;4.75;;
37647;SDS011;23490;53.656;10.076;2023-04-06T00:05:03;11.90;;;4.82;;
37647;SDS011;23490;53.656;10.076;2023-04-06T00:07:28;10.75;;;5.47;;
37647;SDS011;23490;53.656;10.076;2023-04-06T00:09:54;11.35;;;5.70;;
37647;SDS011;23490;53.656;10.076;2023-04-06T00:12:20;11.38;;;5.40;;
37647;SDS011;23490;53.656;10.076;2023-04-06T00:14:45;8.82;;;4.90;;
37647;SDS011;23490;53.656;10.076;2023-04-06T00:17:11;8.13;;;4.55;;
37647;SDS011;23490;53.656;10.076;2023-04-06T00:19:36;9.75;;;4.90;;
37647;SDS011;23490;53.656;10.076;2023-04-06T00:22:02;10.68;;;4.88;;
37647;SDS011;23490;53.656;10.076;2023-04-06T00:24:27;10.45;;;5.68;;
37647;SDS011;23490;53.656;10.076;2023-04-06T00:26:53;8.02;;;4.70;;
37647;SDS011;23490;53.656;10.076;2023-04-06T00:29:18;11.63;;;6.00;;
37647;SDS011;23490;53.656;10.076;2023-04-06T00:31:43;10.20;;;5.00;;
37647;SDS011;23490;53.656;10.076;2023-04-06T00:34:10;9.95;;;5.25;;
37647;SDS011;23490;53.656;10.076;2023-04-06T00:36:35;11.93;;;5.10;;
37647;SDS011;23490;53.656;10.076;2023-04-06T00:39:02;12.18;;;5.32;;
37647;SDS011;23490;53.656;10.076;2023-04-06T00:41:27;10.93;;;5.80;;
37647;SDS011;23490;53.656;10.076;2023-04-06T00:43:53;9.63;;;5.47;;
37647;SDS011;23490;53.656;10.076;2023-04-06T00:46:20;7.57;;;4.65;;
37647;SDS011;23490;53.656;10.076;2023-04-06T00:48:45;9.43;;;5.10;;
37647;SDS011;23490;53.656;10.076;2023-04-06T00:51:10;10.88;;;4.85;;
37647;SDS011;23490;53.656;10.076;2023-04-06T00:53:36;8.88;;;4.80;;
37647;SDS011;23490;53.656;10.076;2023-04-06T00:56:01;9.90;;;4.72;;
37647;SDS011;23490;53.656;10.076;2023-04-06T00:58:27;8.48;;;4.75;;
37647;SDS011;23490;53.656;10.076;2023-04-06T01:00:52;11.07;;;5.20;;
37647;SDS011;23490;53.656;10.076;2023-04-06T01:03:18;10.60;;;5.15;;
37647;SDS011;23490;53.656;10.076;2023-04-06T01:05:43;8.82;;;4.65;;
37647;SDS011;23490;53.656;10.076;2023-04-06T01:08:09;9.30;;;4.95;;
37647;SDS011;23490;53.656;10.076;2023-04-06T01:10:35;8.88;;;4.53;;
37647;SDS011;23490;53.656;10.076;2023-04-06T01:13:00;8.70;;;5.10;;
37647;SDS011;23490;53.656;10.076;2023-04-06T01:15:26;10.48;;;4.90;;
37647;SDS011;23490;53.656;10.076;2023-04-06T01:17:53;9.60;;;4.88;;
37647;SDS011;23490;53.656;10.076;2023-04-06T01:20:18;9.25;;;4.57;;
37647;SDS011;23490;53.656;10.076;2023-04-06T01:22:44;9.20;;;5.22;;
37647;SDS011;23490;53.656;10.076;2023-04-06T01:25:10;10.05;;;4.47;;
37647;SDS011;23490;53.656;10.076;2023-04-06T01:27:35;10.57;;;5.30;;
37647;SDS011;23490;53.656;10.076;2023-04-06T01:30:02;9.43;;;5.10;;
37647;SDS011;23490;53.656;10.076;2023-04-06T01:32:28;9.02;;;4.45;;
37647;SDS011;23490;53.656;10.076;2023-04-06T01:34:54;10.07;;;4.95;;
37647;SDS011;23490;53.656;10.076;2023-04-06T01:37:20;11.93;;;5.22;;
37647;SDS011;23490;53.656;10.076;2023-04-06T01:39:45;8.57;;;4.75;;
37647;SDS011;23490;53.656;10.076;2023-04-06T01:42:11;10.63;;;4.97;;
37647;SDS011;23490;53.656;10.076;2023-04-06T01:44:36;10.27;;;5.18;;
37647;SDS011;23490;53.656;10.076;2023-04-06T01:47:02;10.30;;;4.80;;
37647;SDS011;23490;53.656;10.076;2023-04-06T01:49:27;9.82;;;4.35;;
37647;SDS011;23490;53.656;10.076;2023-04-06T01:51:53;9.52;;;4.50;;
37647;SDS011;23490;53.656;10.076;2023-04-06T01:54:19;8.45;;;5.00;;
37647;SDS011;23490;53.656;10.076;2023-04-06T01:56:45;7.93;;;4.38;;
37647;SDS011;23490;53.656;10.076;2023-04-06T01:59:10;9.68;;;4.97;;
37647;SDS011;23490;53.656;10.076;2023-04-06T02:01:35;8.15;;;3.85;;
37647;SDS011;23490;53.656;10.076;2023-04-06T02:04:01;9.88;;;4.60;;
37647;SDS011;23490;53.656;10.076;2023-04-06T02:06:26;9.55;;;5.05;;
37647;SDS011;23490;53.656;10.076;2023-04-06T02:08:52;8.48;;;4.60;;
37647;SDS011;23490;53.656;10.076;2023-04-06T02:11:17;9.43;;;4.65;;
37647;SDS011;23490;53.656;10.076;2023-04-06T02:13:43;9.25;;;4.72;;
37647;SDS011;23490;53.656;10.076;2023-04-06T02:16:08;9.63;;;4.32;;
37647;SDS011;23490;53.656;10.076;2023-04-06T02:18:34;9.70;;;4.65;;
37647;SDS011;23490;53.656;10.076;2023-04-06T02:20:59;9.70;;;4.68;;
37647;SDS011;23490;53.656;10.076;2023-04-06T02:23:24;9.05;;;4.47;;
37647;SDS011;23490;53.656;10.076;2023-04-06T02:25:50;10.52;;;4.55;;
37647;SDS011;23490;53.656;10.076;2023-04-06T02:28:15;9.52;;;4.68;;
37647;SDS011;23490;53.656;10.076;2023-04-06T02:30:41;8.70;;;4.15;;
37647;SDS011;23490;53.656;10.076;2023-04-06T02:33:06;11.93;;;5.28;;
37647;SDS011;23490;53.656;10.076;2023-04-06T02:35:31;9.90;;;4.80;;
37647;SDS011;23490;53.656;10.076;2023-04-06T02:37:57;8.85;;;4.53;;
37647;SDS011;23490;53.656;10.076;2023-04-06T02:40:22;8.70;;;4.10;;
37647;SDS011;23490;53.656;10.076;2023-04-06T02:42:48;9.50;;;4.72;;
37647;SDS011;23490;53.656;10.076;2023-04-06T02:45:13;9.60;;;4.72;;
37647;SDS011;23490;53.656;10.076;2023-04-06T02:47:38;11.82;;;4.07;;
37647;SDS011;23490;53.656;10.076;2023-04-06T02:50:04;9.60;;;4.90;;
37647;SDS011;23490;53.656;10.076;2023-04-06T02:52:30;9.85;;;4.90;;
37647;SDS011;23490;53.656;10.076;2023-04-06T02:54:55;8.23;;;4.07;;
37647;SDS011;23490;53.656;10.076;2023-04-06T02:57:21;8.27;;;4.75;;
37647;SDS011;23490;53.656;10.076;2023-04-06T02:59:46;10.75;;;4.65;;
37647;SDS011;23490;53.656;10.076;2023-04-06T03:02:11;8.55;;;4.75;;
37647;SDS011;23490;53.656;10.076;2023-04-06T03:04:37;9.75;;;5.13;;
37647;SDS011;23490;53.656;10.076;2023-04-06T03:07:02;10.00;;;5.63;;
37647;SDS011;23490;53.656;10.076;2023-04-06T03:09:27;10.70;;;4.85;;
37647;SDS011;23490;53.656;10.076;2023-04-06T03:11:53;10.45;;;5.25;;
37647;SDS011;23490;53.656;10.076;2023-04-06T03:14:18;11.23;;;4.82;;
37647;SDS011;23490;53.656;10.076;2023-04-06T03:16:47;12.13;;;5.38;;
37647;SDS011;23490;53.656;10.076;2023-04-06T03:19:13;10.68;;;5.07;;
37647;SDS011;23490;53.656;10.076;2023-04-06T03:21:38;9.55;;;4.63;;
37647;SDS011;23490;53.656;10.076;2023-04-06T03:24:04;8.68;;;4.60;;
37647;SDS011;23490;53.656;10.076;2023-04-06T03:26:30;10.70;;;5.30;;
37647;SDS011;23490;53.656;10.076;2023-04-06T03:28:55;10.38;;;4.57;;
37647;SDS011;23490;53.656;10.076;2023-04-06T03:31:21;12.27;;;5.60;;
37647;SDS011;23490;53.656;10.076;2023-04-06T03:33:46;10.73;;;5.65;;
37647;SDS011;23490;53.656;10.076;2023-04-06T03:36:11;10.10;;;5.22;;
37647;SDS011;23490;53.656;10.076;2023-04-06T03:38:37;11.93;;;5.22;;
37647;SDS011;23490;53.656;10.076;2023-04-06T03:41:02;10.32;;;5.10;;
37647;SDS011;23490;53.656;10.076;2023-04-06T03:43:27;10.20;;;5.75;;
37647;SDS011;23490;53.656;10.076;2023-04-06T03:45:53;10.45;;;4.65;;
37647;SDS011;23490;53.656;10.076;2023-04-06T03:48:18;10.65;;;5.57;;
37647;SDS011;23490;53.656;10.076;2023-04-06T03:50:43;9.43;;;4.85;;
37647;SDS011;23490;53.656;10.076;2023-04-06T03:53:09;11.73;;;5.22;;
37647;SDS011;23490;53.656;10.076;2023-04-06T03:55:34;12.25;;;4.82;;
37647;SDS011;23490;53.656;10.076;2023-04-06T03:58:00;14.60;;;5.75;;
37647;SDS011;23490;53.656;10.076;2023-04-06T04:00:26;9.85;;;4.95;;
37647;SDS011;23490;53.656;10.076;2023-04-06T04:02:52;11.75;;;5.25;;
37647;SDS011;23490;53.656;10.076;2023-04-06T04:05:17;9.65;;;4.80;;
37647;SDS011;23490;53.656;10.076;2023-04-06T04:07:42;12.43;;;5.05;;
37647;SDS011;23490;53.656;10.076;2023-04-06T04:10:08;9.98;;;4.53;;
37647;SDS011;23490;53.656;10.076;2023-04-06T04:12:33;10.77;;;5.10;;
37647;SDS011;23490;53.656;10.076;2023-04-06T04:14:59;11.48;;;4.85;;
37647;SDS011;23490;53.656;10.076;2023-04-06T04:17:24;11.77;;;5.43;;
37647;SDS011;23490;53.656;10.076;2023-04-06T04:19:50;11.75;;;5.68;;
37647;SDS011;23490;53.656;10.076;2023-04-06T04:22:15;11.38;;;5.38;;
37647;SDS011;23490;53.656;10.076;2023-04-06T04:24:40;8.50;;;4.80;;
37647;SDS011;23490;53.656;10.076;2023-04-06T04:27:06;11.70;;;5.75;;
37647;SDS011;23490;53.656;10.076;2023-04-06T04:29:31;10.65;;;5.18;;
37647;SDS011;23490;53.656;10.076;2023-04-06T04:31:56;11.50;;;5.72;;
37647;SDS011;23490;53.656;10.076;2023-04-06T04:34:22;9.75;;;5.32;;
37647;SDS011;23490;53.656;10.076;2023-04-06T04:36:51;9.00;;;5.30;;
37647;SDS011;23490;53.656;10.076;2023-04-06T04:39:17;9.65;;;5.00;;
37647;SDS011;23490;53.656;10.076;2023-04-06T04:41:42;13.20;;;5.50;;
37647;SDS011;23490;53.656;10.076;2023-04-06T04:44:07;10.82;;;5.30;;
37647;SDS011;23490;53.656;10.076;2023-04-06T04:46:32;10.95;;;4.75;;
37647;SDS011;23490;53.656;10.076;2023-04-06T04:48:58;11.95;;;5.45;;
37647;SDS011;23490;53.656;10.076;2023-04-06T04:51:23;9.88;;;5.47;;
37647;SDS011;23490;53.656;10.076;2023-04-06T04:53:49;9.57;;;5.03;;
37647;SDS011;23490;53.656;10.076;2023-04-06T04:56:15;12.02;;;5.43;;
37647;SDS011;23490;53.656;10.076;2023-04-06T04:58:40;11.32;;;5.35;;
37647;SDS011;23490;53.656;10.076;2023-04-06T05:01:05;10.02;;;4.80;;
37647;SDS011;23490;53.656;10.076;2023-04-06T05:03:31;11.65;;;5.72;;
37647;SDS011;23490;53.656;10.076;2023-04-06T05:05:57;11.43;;;5.35;;
37647;SDS011;23490;53.656;10.076;2023-04-06T05:08:23;9.75;;;5.72;;
37647;SDS011;23490;53.656;10.076;2023-04-06T05:10:48;12.43;;;5.35;;
37647;SDS011;23490;53.656;10.076;2023-04-06T05:13:14;9.70;;;5.50;;
37647;SDS011;23490;53.656;10.076;2023-04-06T05:15:40;13.60;;;6.28;;
37647;SDS011;23490;53.656;10.076;2023-04-06T05:18:07;11.00;;;5.68;;
37647;SDS011;23490;53.656;10.076;2023-04-06T05:20:34;11.75;;;5.15;;
37647;SDS011;23490;53.656;10.076;2023-04-06T05:22:59;11.73;;;5.35;;
37647;SDS011;23490;53.656;10.076;2023-04-06T05:25:25;8.68;;;5.15;;
37647;SDS011;23490;53.656;10.076;2023-04-06T05:27:51;14.85;;;6.30;;
37647;SDS011;23490;53.656;10.076;2023-04-06T05:30:16;14.63;;;6.15;;
37647;SDS011;23490;53.656;10.076;2023-04-06T05:32:43;10.98;;;5.43;;
37647;SDS011;23490;53.656;10.076;2023-04-06T05:35:09;16.27;;;6.22;;
37647;SDS011;23490;53.656;10.076;2023-04-06T05:37:35;11.35;;;5.72;;
37647;SDS011;23490;53.656;10.076;2023-04-06T05:40:00;13.55;;;6.43;;
37647;SDS011;23490;53.656;10.076;2023-04-06T05:42:25;13.10;;;5.97;;
37647;SDS011;23490;53.656;10.076;2023-04-06T05:44:52;13.30;;;6.55;;
37647;SDS011;23490;53.656;10.076;2023-04-06T05:47:17;12.20;;;5.95;;
37647;SDS011;23490;53.656;10.076;2023-04-06T05:49:43;11.13;;;6.03;;
37647;SDS011;23490;53.656;10.076;2023-04-06T05:52:08;13.07;;;5.85;;
37647;SDS011;23490;53.656;10.076;2023-04-06T05:54:35;11.95;;;5.72;;
37647;SDS011;23490;53.656;10.076;2023-04-06T05:57:01;10.60;;;5.75;;
37647;SDS011;23490;53.656;10.076;2023-04-06T05:59:27;9.68;;;5.72;;
37647;SDS011;23490;53.656;10.076;2023-04-06T06:01:53;12.23;;;5.88;;
37647;SDS011;23490;53.656;10.076;2023-04-06T06:04:18;13.75;;;6.43;;
37647;SDS011;23490;53.656;10.076;2023-04-06T06:06:43;15.73;;;6.75;;
37647;SDS011;23490;53.656;10.076;2023-04-06T06:09:09;15.65;;;7.50;;
37647;SDS011;23490;53.656;10.076;2023-04-06T06:11:35;14.35;;;7.18;;
37647;SDS011;23490;53.656;10.076;2023-04-06T06:14:02;13.88;;;7.70;;
37647;SDS011;23490;53.656;10.076;2023-04-06T06:16:27;14.27;;;7.20;;
37647;SDS011;23490;53.656;10.076;2023-04-06T06:18:52;15.50;;;7.32;;
37647;SDS011;23490;53.656;10.076;2023-04-06T06:21:18;15.15;;;8.35;;
37647;SDS011;23490;53.656;10.076;2023-04-06T06:23:43;13.50;;;7.13;;
37647;SDS011;23490;53.656;10.076;2023-04-06T06:26:08;12.18;;;7.50;;
37647;SDS011;23490;53.656;10.076;2023-04-06T06:28:34;15.73;;;7.70;;
37647;SDS011;23490;53.656;10.076;2023-04-06T06:30:59;12.95;;;6.60;;
37647;SDS011;23490;53.656;10.076;2023-04-06T06:33:26;12.65;;;7.32;;
37647;SDS011;23490;53.656;10.076;2023-04-06T06:35:51;13.40;;;7.28;;
37647;SDS011;23490;53.656;10.076;2023-04-06T06:38:17;10.85;;;6.55;;
37647;SDS011;23490;53.656;10.076;2023-04-06T06:40:42;14.25;;;6.93;;
37647;SDS011;23490;53.656;10.076;2023-04-06T06:43:09;14.73;;;8.23;;
37647;SDS011;23490;53.656;10.076;2023-04-06T06:45:34;12.43;;;6.90;;
37647;SDS011;23490;53.656;10.076;2023-04-06T06:47:59;15.05;;;7.05;;
37647;SDS011;23490;53.656;10.076;2023-04-06T06:50:25;16.35;;;7.13;;
37647;SDS011;23490;53.656;10.076;2023-04-06T06:52:50;10.23;;;6.65;;
37647;SDS011;23490;53.656;10.076;2023-04-06T06:55:16;13.55;;;6.57;;
37647;SDS011;23490;53.656;10.076;2023-04-06T06:57:43;11.52;;;6.30;;
37647;SDS011;23490;53.656;10.076;2023-04-06T07:00:11;11.52;;;6.35;;
37647;SDS011;23490;53.656;10.076;2023-04-06T07:02:38;10.15;;;6.18;;
37647;SDS011;23490;53.656;10.076;2023-04-06T07:05:03;9.63;;;4.88;;
37647;SDS011;23490;53.656;10.076;2023-04-06T07:07:29;11.07;;;5.90;;
37647;SDS011;23490;53.656;10.076;2023-04-06T07:09:56;9.77;;;5.68;;
37647;SDS011;23490;53.656;10.076;2023-04-06T07:12:21;10.60;;;6.60;;
37647;SDS011;23490;53.656;10.076;2023-04-06T07:14:50;9.88;;;5.53;;
37647;SDS011;23490;53.656;10.076;2023-04-06T07:17:16;13.32;;;5.35;;
37647;SDS011;23490;53.656;10.076;2023-04-06T07:19:41;10.27;;;5.13;;
37647;SDS011;23490;53.656;10.076;2023-04-06T07:22:07;9.60;;;4.65;;
37647;SDS011;23490;53.656;10.076;2023-04-06T07:24:32;11.68;;;4.50;;
37647;SDS011;23490;53.656;10.076;2023-04-06T07:27:00;8.75;;;4.90;;
37647;SDS011;23490;53.656;10.076;2023-04-06T07:29:27;8.13;;;4.90;;
37647;SDS011;23490;53.656;10.076;2023-04-06T07:31:52;7.95;;;4.07;;
37647;SDS011;23490;53.656;10.076;2023-04-06T07:34:18;9.20;;;3.97;;
37647;SDS011;23490;53.656;10.076;2023-04-06T07:36:43;7.18;;;3.92;;
37647;SDS011;23490;53.656;10.076;2023-04-06T07:39:09;7.50;;;3.78;;
37647;SDS011;23490;53.656;10.076;2023-04-06T07:41:36;7.55;;;3.65;;
37647;SDS011;23490;53.656;10.076;2023-04-06T07:44:01;7.60;;;3.72;;
37647;SDS011;23490;53.656;10.076;2023-04-06T07:46:27;5.18;;;3.15;;
37647;SDS011;23490;53.656;10.076;2023-04-06T07:48:52;8.45;;;3.33;;
37647;SDS011;23490;53.656;10.076;2023-04-06T07:51:17;6.53;;;3.63;;
37647;SDS011;23490;53.656;10.076;2023-04-06T07:53:46;5.10;;;3.50;;
37647;SDS011;23490;53.656;10.076;2023-04-06T07:56:11;10.38;;;3.60;;
37647;SDS011;23490;53.656;10.076;2023-04-06T07:58:37;8.38;;;3.75;;
37647;SDS011;23490;53.656;10.076;2023-04-06T08:01:03;9.75;;;3.60;;
37647;SDS011;23490;53.656;10.076;2023-04-06T08:03:28;7.35;;;3.63;;
37647;SDS011;23490;53.656;10.076;2023-04-06T08:05:53;7.70;;;3.47;;
37647;SDS011;23490;53.656;10.076;2023-04-06T08:08:20;6.90;;;3.42;;
37647;SDS011;23490;53.656;10.076;2023-04-06T08:10:46;7.78;;;3.25;;
37647;SDS011;23490;53.656;10.076;2023-04-06T08:13:13;9.15;;;3.35;;
37647;SDS011;23490;53.656;10.076;2023-04-06T08:15:39;5.30;;;2.83;;
37647;SDS011;23490;53.656;10.076;2023-04-06T08:18:04;5.07;;;2.88;;
37647;SDS011;23490;53.656;10.076;2023-04-06T08:20:30;6.80;;;3.05;;
37647;SDS011;23490;53.656;10.076;2023-04-06T08:22:56;5.15;;;3.03;;
37647;SDS011;23490;53.656;10.076;2023-04-06T08:25:21;7.35;;;2.70;;
37647;SDS011;23490;53.656;10.076;2023-04-06T08:27:47;5.10;;;2.80;;
37647;SDS011;23490;53.656;10.076;2023-04-06T08:30:12;6.72;;;3.10;;
37647;SDS011;23490;53.656;10.076;2023-04-06T08:32:39;6.22;;;3.05;;
37647;SDS011;23490;53.656;10.076;2023-04-06T08:35:06;5.63;;;3.35;;
37647;SDS011;23490;53.656;10.076;2023-04-06T08:37:32;7.47;;;3.53;;
37647;SDS011;23490;53.656;10.076;2023-04-06T08:39:57;5.75;;;3.22;;
37647;SDS011;23490;53.656;10.076;2023-04-06T08:42:23;5.75;;;3.05;;
37647;SDS011;23490;53.656;10.076;2023-04-06T08:44:51;4.95;;;2.35;;
37647;SDS011;23490;53.656;10.076;2023-04-06T08:47:17;6.32;;;2.88;;
37647;SDS011;23490;53.656;10.076;2023-04-06T08:49:44;6.25;;;3.00;;
37647;SDS011;23490;53.656;10.076;2023-04-06T08:52:10;6.70;;;2.90;;
37647;SDS011;23490;53.656;10.076;2023-04-06T08:54:35;4.82;;;2.80;;
37647;SDS011;23490;53.656;10.076;2023-04-06T08:57:01;5.47;;;2.97;;
37647;SDS011;23490;53.656;10.076;2023-04-06T08:59:27;7.82;;;3.22;;
37647;SDS011;23490;53.656;10.076;2023-04-06T09:08:16;6.90;;;3.00;;
37647;SDS011;23490;53.656;10.076;2023-04-06T09:10:42;5.97;;;2.80;;
37647;SDS011;23490;53.656;10.076;2023-04-06T09:13:08;4.88;;;2.65;;
37647;SDS011;23490;53.656;10.076;2023-04-06T09:15:37;6.07;;;3.13;;
37647;SDS011;23490;53.656;10.076;2023-04-06T09:18:03;6.35;;;2.92;;
37647;SDS011;23490;53.656;10.076;2023-04-06T09:20:28;4.63;;;2.35;;
37647;SDS011;23490;53.656;10.076;2023-04-06T09:22:54;5.57;;;2.80;;
37647;SDS011;23490;53.656;10.076;2023-04-06T09:25:21;7.22;;;2.72;;
37647;SDS011;23490;53.656;10.076;2023-04-06T09:27:48;5.10;;;2.13;;
37647;SDS011;23490;53.656;10.076;2023-04-06T09:30:22;5.88;;;2.72;;
37647;SDS011;23490;53.656;10.076;2023-04-06T09:32:50;4.82;;;2.45;;
37647;SDS011;23490;53.656;10.076;2023-04-06T09:35:17;5.32;;;2.60;;
37647;SDS011;23490;53.656;10.076;2023-04-06T09:37:45;5.43;;;2.63;;
37647;SDS011;23490;53.656;10.076;2023-04-06T09:40:12;5.07;;;2.28;;
37647;SDS011;23490;53.656;10.076;2023-04-06T09:42:40;5.00;;;2.40;;
37647;SDS011;23490;53.656;10.076;2023-04-06T09:45:06;5.70;;;2.80;;
37647;SDS011;23490;53.656;10.076;2023-04-06T09:47:32;7.70;;;2.42;;
37647;SDS011;23490;53.656;10.076;2023-04-06T09:50:00;5.47;;;2.40;;
37647;SDS011;23490;53.656;10.076;2023-04-06T09:52:35;4.63;;;2.20;;
37647;SDS011;23490;53.656;10.076;2023-04-06T09:55:05;5.35;;;2.42;;
37647;SDS011;23490;53.656;10.076;2023-04-06T09:57:37;4.57;;;2.40;;
37647;SDS011;23490;53.656;10.076;2023-04-06T10:00:12;3.65;;;2.47;;
37647;SDS011;23490;53.656;10.076;2023-04-06T10:08:05;5.20;;;3.25;;
37647;SDS011;23490;53.656;10.076;2023-04-06T10:10:33;4.90;;;2.53;;
37647;SDS011;23490;53.656;10.076;2023-04-06T10:12:59;3.70;;;2.35;;
37647;SDS011;23490;53.656;10.076;2023-04-06T10:15:25;4.53;;;2.85;;
37647;SDS011;23490;53.656;10.076;2023-04-06T10:17:50;5.20;;;3.10;;
37647;SDS011;23490;53.656;10.076;2023-04-06T10:20:23;5.05;;;3.00;;
37647;SDS011;23490;53.656;10.076;2023-04-06T10:23:04;6.13;;;2.92;;
37647;SDS011;23490;53.656;10.076;2023-04-06T10:25:33;5.22;;;2.92;;
37647;SDS011;23490;53.656;10.076;2023-04-06T10:28:04;6.70;;;3.08;;
37647;SDS011;23490;53.656;10.076;2023-04-06T10:30:31;4.63;;;2.72;;
37647;SDS011;23490;53.656;10.076;2023-04-06T10:32:57;5.65;;;3.05;;
37647;SDS011;23490;53.656;10.076;2023-04-06T10:35:23;4.32;;;2.53;;
37647;SDS011;23490;53.656;10.076;2023-04-06T10:38:01;6.38;;;2.90;;
37647;SDS011;23490;53.656;10.076;2023-04-06T10:40:28;6.70;;;3.30;;
37647;SDS011;23490;53.656;10.076;2023-04-06T10:43:06;4.88;;;2.60;;
37647;SDS011;23490;53.656;10.076;2023-04-06T10:45:37;5.32;;;2.45;;
37647;SDS011;23490;53.656;10.076;2023-04-06T10:48:12;4.72;;;2.70;;
37647;SDS011;23490;53.656;10.076;2023-04-06T10:50:43;7.77;;;3.20;;
37647;SDS011;23490;53.656;10.076;2023-04-06T10:53:11;6.63;;;3.28;;
37647;SDS011;23490;53.656;10.076;2023-04-06T10:55:38;3.92;;;2.65;;
37647;SDS011;23490;53.656;10.076;2023-04-06T10:58:07;8.65;;;3.05;;
37647;SDS011;23490;53.656;10.076;2023-04-06T11:00:33;4.32;;;2.85;;
37647;SDS011;23490;53.656;10.076;2023-04-06T11:02:59;6.75;;;3.60;;
37647;SDS011;23490;53.656;10.076;2023-04-06T11:05:25;6.60;;;3.25;;
37647;SDS011;23490;53.656;10.076;2023-04-06T11:07:51;7.00;;;3.28;;
37647;SDS011;23490;53.656;10.076;2023-04-06T11:10:20;7.38;;;3.85;;
37647;SDS011;23490;53.656;10.076;2023-04-06T11:12:52;7.50;;;3.78;;
37647;SDS011;23490;53.656;10.076;2023-04-06T11:15:18;6.15;;;3.58;;
37647;SDS011;23490;53.656;10.076;2023-04-06T11:17:44;5.85;;;3.63;;
37647;SDS011;23490;53.656;10.076;2023-04-06T11:20:10;6.13;;;3.83;;
37647;SDS011;23490;53.656;10.076;2023-04-06T11:22:36;8.00;;;4.72;;
37647;SDS011;23490;53.656;10.076;2023-04-06T11:25:12;9.82;;;4.68;;
37647;SDS011;23490;53.656;10.076;2023-04-06T11:27:38;6.40;;;4.18;;
37647;SDS011;23490;53.656;10.076;2023-04-06T11:30:04;8.00;;;4.55;;
37647;SDS011;23490;53.656;10.076;2023-04-06T11:32:38;7.63;;;4.78;;
37647;SDS011;23490;53.656;10.076;2023-04-06T11:35:05;7.93;;;4.45;;
37647;SDS011;23490;53.656;10.076;2023-04-06T11:37:31;8.05;;;4.70;;
37647;SDS011;23490;53.656;10.076;2023-04-06T11:39:57;6.93;;;4.30;;
37647;SDS011;23490;53.656;10.076;2023-04-06T11:42:24;7.03;;;4.20;;
37647;SDS011;23490;53.656;10.076;2023-04-06T11:44:51;7.68;;;4.95;;
37647;SDS011;23490;53.656;10.076;2023-04-06T11:47:18;7.70;;;5.38;;
37647;SDS011;23490;53.656;10.076;2023-04-06T11:49:45;8.60;;;5.55;;
37647;SDS011;23490;53.656;10.076;2023-04-06T11:52:14;8.15;;;4.68;;
37647;SDS011;23490;53.656;10.076;2023-04-06T11:54:40;8.40;;;5.28;;
37647;SDS011;23490;53.656;10.076;2023-04-06T11:57:08;8.77;;;4.90;;
37647;SDS011;23490;53.656;10.076;2023-04-06T11:59:34;7.65;;;5.30;;
37647;SDS011;23490;53.656;10.076;2023-04-06T12:02:01;7.65;;;4.85;;
37647;SDS011;23490;53.656;10.076;2023-04-06T12:04:28;8.82;;;4.75;;
37647;SDS011;23490;53.656;10.076;2023-04-06T12:06:54;7.30;;;5.07;;
37647;SDS011;23490;53.656;10.076;2023-04-06T12:09:19;8.32;;;4.93;;
37647;SDS011;23490;53.656;10.076;2023-04-06T12:11:45;8.75;;;4.68;;
37647;SDS011;23490;53.656;10.076;2023-04-06T12:14:11;7.20;;;4.68;;
37647;SDS011;23490;53.656;10.076;2023-04-06T12:16:36;8.35;;;5.45;;
37647;SDS011;23490;53.656;10.076;2023-04-06T12:19:02;7.43;;;5.00;;
37647;SDS011;23490;53.656;10.076;2023-04-06T12:21:27;9.35;;;4.88;;
37647;SDS011;23490;53.656;10.076;2023-04-06T12:23:53;7.97;;;4.55;;
37647;SDS011;23490;53.656;10.076;2023-04-06T12:26:19;6.03;;;4.43;;
37647;SDS011;23490;53.656;10.076;2023-04-06T12:28:45;7.75;;;4.53;;
37647;SDS011;23490;53.656;10.076;2023-04-06T12:31:14;8.48;;;4.75;;
37647;SDS011;23490;53.656;10.076;2023-04-06T12:33:41;7.90;;;4.88;;
37647;SDS011;23490;53.656;10.076;2023-04-06T12:36:13;8.07;;;5.05;;
37647;SDS011;23490;53.656;10.076;2023-04-06T12:38:49;7.82;;;5.05;;
37647;SDS011;23490;53.656;10.076;2023-04-06T12:41:16;7.13;;;4.45;;
37647;SDS011;23490;53.656;10.076;2023-04-06T12:43:42;7.32;;;4.78;;
37647;SDS011;23490;53.656;10.076;2023-04-06T12:46:09;7.38;;;4.70;;
37647;SDS011;23490;53.656;10.076;2023-04-06T12:48:35;6.88;;;4.30;;
37647;SDS011;23490;53.656;10.076;2023-04-06T12:51:02;6.82;;;4.28;;
37647;SDS011;23490;53.656;10.076;2023-04-06T12:53:29;6.45;;;4.10;;
37647;SDS011;23490;53.656;10.076;2023-04-06T12:55:55;6.95;;;4.68;;
37647;SDS011;23490;53.656;10.076;2023-04-06T12:58:21;9.35;;;4.65;;
37647;SDS011;23490;53.656;10.076;2023-04-06T13:00:47;6.63;;;4.50;;
37647;SDS011;23490;53.656;10.076;2023-04-06T13:03:13;7.32;;;5.20;;
37647;SDS011;23490;53.656;10.076;2023-04-06T13:05:44;6.95;;;4.78;;
37647;SDS011;23490;53.656;10.076;2023-04-06T13:08:11;7.80;;;4.43;;
37647;SDS011;23490;53.656;10.076;2023-04-06T13:10:36;6.57;;;4.18;;
37647;SDS011;23490;53.656;10.076;2023-04-06T13:13:02;6.93;;;5.03;;
37647;SDS011;23490;53.656;10.076;2023-04-06T13:15:27;7.93;;;4.60;;
37647;SDS011;23490;53.656;10.076;2023-04-06T13:17:53;6.95;;;4.82;;
37647;SDS011;23490;53.656;10.076;2023-04-06T13:20:18;10.32;;;5.30;;
37647;SDS011;23490;53.656;10.076;2023-04-06T13:22:43;7.70;;;4.97;;
37647;SDS011;23490;53.656;10.076;2023-04-06T13:25:09;9.98;;;4.70;;
37647;SDS011;23490;53.656;10.076;2023-04-06T13:27:34;7.80;;;4.70;;
37647;SDS011;23490;53.656;10.076;2023-04-06T13:30:01;7.32;;;4.50;;
37647;SDS011;23490;53.656;10.076;2023-04-06T13:32:27;7.88;;;4.63;;
37647;SDS011;23490;53.656;10.076;2023-04-06T13:34:55;7.30;;;4.72;;
37647;SDS011;23490;53.656;10.076;2023-04-06T13:37:22;11.32;;;5.10;;
37647;SDS011;23490;53.656;10.076;2023-04-06T13:39:47;8.95;;;4.80;;
37647;SDS011;23490;53.656;10.076;2023-04-06T13:42:12;9.18;;;4.88;;
37647;SDS011;23490;53.656;10.076;2023-04-06T13:44:38;8.07;;;4.32;;
37647;SDS011;23490;53.656;10.076;2023-04-06T13:47:03;7.60;;;4.60;;
37647;SDS011;23490;53.656;10.076;2023-04-06T13:49:28;6.95;;;4.40;;
37647;SDS011;23490;53.656;10.076;2023-04-06T13:51:55;6.65;;;4.25;;
37647;SDS011;23490;53.656;10.076;2023-04-06T13:54:20;7.40;;;4.43;;
37647;SDS011;23490;53.656;10.076;2023-04-06T13:56:46;7.00;;;4.82;;
37647;SDS011;23490;53.656;10.076;2023-04-06T13:59:11;8.32;;;4.95;;
37647;SDS011;23490;53.656;10.076;2023-04-06T14:01:36;6.85;;;4.97;;
37647;SDS011;23490;53.656;10.076;2023-04-06T14:04:02;7.78;;;5.10;;
37647;SDS011;23490;53.656;10.076;2023-04-06T14:06:27;8.20;;;4.40;;
37647;SDS011;23490;53.656;10.076;2023-04-06T14:08:54;8.70;;;5.07;;
37647;SDS011;23490;53.656;10.076;2023-04-06T14:11:19;6.50;;;4.60;;
37647;SDS011;23490;53.656;10.076;2023-04-06T14:13:44;8.48;;;5.05;;
37647;SDS011;23490;53.656;10.076;2023-04-06T14:16:10;8.45;;;4.60;;
37647;SDS011;23490;53.656;10.076;2023-04-06T14:18:36;7.57;;;5.38;;
37647;SDS011;23490;53.656;10.076;2023-04-06T14:21:02;8.25;;;4.78;;
37647;SDS011;23490;53.656;10.076;2023-04-06T14:23:27;7.50;;;5.13;;
37647;SDS011;23490;53.656;10.076;2023-04-06T14:26:06;8.38;;;5.22;;
37647;SDS011;23490;53.656;10.076;2023-04-06T14:31:00;6.93;;;4.97;;
37647;SDS011;23490;53.656;10.076;2023-04-06T14:33:27;8.20;;;5.00;;
37647;SDS011;23490;53.656;10.076;2023-04-06T14:35:52;9.25;;;5.28;;
37647;SDS011;23490;53.656;10.076;2023-04-06T14:38:18;8.30;;;5.22;;